createdAt,value
2023-11-04T00:00:27.882Z,978.48
2023-11-04T00:01:28.878Z,978.46
2023-11-04T00:02:29.808Z,978.46
2023-11-04T00:03:31.567Z,978.48
2023-11-04T00:04:31.679Z,978.46
2023-11-04T00:05:34.008Z,978.43
2023-11-04T00:06:33.398Z,978.38
2023-11-04T00:07:34.427Z,978.38
2023-11-04T00:08:34.370Z,978.40
2023-11-04T00:09:45.981Z,978.36
2023-11-04T00:10:37.465Z,978.37
2023-11-04T00:11:36.389Z,978.37
2023-11-04T00:12:39.064Z,978.37
2023-11-04T00:13:38.442Z,978.36
2023-11-04T00:14:38.393Z,978.36
2023-11-04T00:15:43.965Z,978.37
2023-11-04T00:16:39.831Z,978.35
2023-11-04T00:17:43.949Z,978.32
2023-11-04T00:18:43.471Z,978.33
2023-11-04T00:19:43.922Z,978.33
2023-11-04T00:20:51.511Z,978.35
2023-11-04T00:21:45.223Z,978.33
2023-11-04T00:22:45.198Z,978.32
2023-11-04T00:23:46.895Z,978.31
2023-11-04T00:24:47.467Z,978.32
2023-11-04T00:25:47.930Z,978.33
2023-11-04T00:26:47.938Z,978.32
2023-11-04T00:27:50.414Z,978.31
2023-11-04T00:28:50.675Z,978.28
2023-11-04T00:29:50.605Z,978.29
2023-11-04T00:30:51.317Z,978.30
2023-11-04T00:31:53.973Z,978.30
2023-11-04T00:32:52.941Z,978.31
2023-11-04T00:33:53.397Z,978.31
2023-11-04T00:34:54.324Z,978.32
2023-11-04T00:35:55.238Z,978.34
2023-11-04T00:36:56.215Z,978.34
2023-11-04T00:37:58.944Z,978.33
2023-11-04T00:38:57.826Z,978.31
2023-11-04T00:39:58.770Z,978.31
2023-11-04T00:41:00.917Z,978.34
2023-11-04T00:42:01.929Z,978.33
2023-11-04T00:43:01.392Z,978.29
2023-11-04T00:44:01.809Z,978.29
2023-11-04T00:45:04.471Z,978.27
2023-11-04T00:46:10.390Z,978.25
2023-11-04T00:47:05.928Z,978.29
2023-11-04T00:48:04.885Z,978.28
2023-11-04T00:49:05.879Z,978.29
2023-11-04T00:50:15.012Z,978.27
2023-11-04T00:51:09.946Z,978.29
2023-11-04T00:52:12.419Z,978.27
2023-11-04T00:53:10.424Z,978.27
2023-11-04T00:54:09.918Z,978.26
2023-11-04T00:55:10.774Z,978.28
2023-11-04T00:56:11.422Z,978.29
2023-11-04T00:57:11.376Z,978.27
2023-11-04T00:58:12.278Z,978.26
2023-11-04T00:59:13.200Z,978.26
2023-11-04T01:00:14.167Z,978.26
2023-11-04T01:01:15.108Z,978.24
2023-11-04T01:02:16.884Z,978.22
2023-11-04T01:03:16.884Z,978.23
2023-11-04T01:04:18.558Z,978.21
2023-11-04T01:05:20.030Z,978.21
2023-11-04T01:06:21.929Z,978.18
2023-11-04T01:07:20.417Z,978.19
2023-11-04T01:08:20.357Z,978.15
2023-11-04T01:09:22.036Z,978.21
2023-11-04T01:10:22.002Z,978.23
2023-11-04T01:11:25.419Z,978.26
2023-11-04T01:12:23.366Z,978.27
2023-11-04T01:13:28.930Z,978.25
2023-11-04T01:14:26.427Z,978.26
2023-11-04T01:15:25.954Z,978.24
2023-11-04T01:16:26.407Z,978.27
2023-11-04T01:17:29.411Z,978.26
2023-11-04T01:18:27.375Z,978.26
2023-11-04T01:19:28.549Z,978.25
2023-11-04T01:20:30.981Z,978.25
2023-11-04T01:21:34.567Z,978.25
2023-11-04T01:22:32.436Z,978.25
2023-11-04T01:23:32.950Z,978.25
2023-11-04T01:24:31.858Z,978.26
2023-11-04T01:25:34.422Z,978.26
2023-11-04T01:26:34.913Z,978.23
2023-11-04T01:27:35.525Z,978.23
2023-11-04T01:28:35.920Z,978.22
2023-11-04T01:29:35.325Z,978.19
2023-11-04T01:30:37.930Z,978.15
2023-11-04T01:31:36.863Z,978.18
2023-11-04T01:32:42.967Z,978.16
2023-11-04T01:33:39.254Z,978.14
2023-11-04T01:34:41.969Z,978.15
2023-11-04T01:35:40.196Z,978.15
2023-11-04T01:36:40.998Z,978.18
2023-11-04T01:37:41.795Z,978.23
2023-11-04T01:38:42.613Z,978.15
2023-11-04T01:39:46.448Z,978.19
2023-11-04T01:40:45.927Z,978.19
2023-11-04T01:41:45.408Z,978.17
2023-11-04T01:42:45.965Z,978.17
2023-11-04T01:43:48.901Z,978.11
2023-11-04T01:44:47.317Z,978.17
2023-11-04T01:45:52.969Z,978.18
2023-11-04T01:46:48.977Z,978.13
2023-11-04T01:47:50.021Z,978.13
2023-11-04T01:48:50.186Z,978.12
2023-11-04T01:49:51.431Z,978.11
2023-11-04T01:50:52.932Z,978.11
2023-11-04T01:51:51.889Z,978.10
2023-11-04T01:52:52.820Z,978.08
2023-11-04T01:53:55.449Z,978.12
2023-11-04T01:54:56.046Z,978.07
2023-11-04T01:55:55.917Z,978.09
2023-11-04T01:56:56.443Z,978.05
2023-11-04T01:57:56.376Z,978.06
2023-11-04T01:58:57.950Z,978.04
2023-11-04T01:59:59.945Z,978.05
2023-11-04T02:01:00.437Z,978.01
2023-11-04T02:01:59.835Z,978.03
2023-11-04T02:03:01.494Z,978.00
2023-11-04T02:04:03.498Z,978.00
2023-11-04T02:05:09.467Z,978.01
2023-11-04T02:06:05.438Z,978.01
2023-11-04T02:07:06.416Z,978.01
2023-11-04T02:08:06.469Z,978.01
2023-11-04T02:09:05.406Z,978.00
2023-11-04T02:10:06.334Z,977.98
2023-11-04T02:11:07.929Z,978.00
2023-11-04T02:12:10.418Z,977.97
2023-11-04T02:13:09.432Z,977.96
2023-11-04T02:14:09.594Z,977.99
2023-11-04T02:15:11.961Z,977.98
2023-11-04T02:16:11.737Z,977.97
2023-11-04T02:17:11.644Z,977.95
2023-11-04T02:18:14.540Z,977.97
2023-11-04T02:19:15.483Z,977.96
2023-11-04T02:20:14.931Z,977.96
2023-11-04T02:21:15.354Z,977.93
2023-11-04T02:22:16.283Z,977.95
2023-11-04T02:23:24.926Z,977.94
2023-11-04T02:24:20.971Z,977.93
2023-11-04T02:25:18.940Z,977.95
2023-11-04T02:26:19.418Z,977.93
2023-11-04T02:27:21.482Z,977.98
2023-11-04T02:28:22.914Z,977.90
2023-11-04T02:29:21.354Z,977.91
2023-11-04T02:30:23.122Z,977.93
2023-11-04T02:31:23.069Z,977.90
2023-11-04T02:32:24.912Z,977.88
2023-11-04T02:33:26.524Z,977.94
2023-11-04T02:34:27.044Z,977.88
2023-11-04T02:35:26.000Z,977.86
2023-11-04T02:36:27.434Z,977.87
2023-11-04T02:37:28.932Z,977.89
2023-11-04T02:38:27.910Z,977.85
2023-11-04T02:39:29.480Z,977.87
2023-11-04T02:40:31.943Z,977.85
2023-11-04T02:41:31.433Z,977.81
2023-11-04T02:42:30.904Z,977.77
2023-11-04T02:43:31.824Z,977.76
2023-11-04T02:44:33.429Z,977.71
2023-11-04T02:45:34.980Z,977.69
2023-11-04T02:46:38.431Z,977.65
2023-11-04T02:47:45.595Z,977.69
2023-11-04T02:48:36.554Z,977.68
2023-11-04T02:49:36.284Z,977.64
2023-11-04T02:50:38.959Z,977.60
2023-11-04T02:51:39.434Z,977.60
2023-11-04T02:52:38.987Z,977.54
2023-11-04T02:53:40.763Z,977.54
2023-11-04T02:54:47.451Z,977.53
2023-11-04T02:55:43.435Z,977.53
2023-11-04T02:56:44.925Z,977.51
2023-11-04T02:57:43.943Z,977.50
2023-11-04T02:58:44.472Z,977.50
2023-11-04T02:59:44.398Z,977.49
2023-11-04T03:00:46.356Z,977.47
2023-11-04T03:01:47.950Z,977.44
2023-11-04T03:02:46.922Z,977.41
2023-11-04T03:03:48.509Z,977.42
2023-11-04T03:04:53.493Z,977.42
2023-11-04T03:05:51.951Z,977.40
2023-11-04T03:06:49.924Z,977.40
2023-11-04T03:07:50.861Z,977.37
2023-11-04T03:08:54.432Z,977.38
2023-11-04T03:09:53.968Z,977.36
2023-11-04T03:10:53.440Z,977.35
2023-11-04T03:11:54.442Z,977.36
2023-11-04T03:12:56.946Z,977.35
2023-11-04T03:13:54.869Z,977.31
2023-11-04T03:14:55.727Z,977.35
2023-11-04T03:15:57.965Z,977.33
2023-11-04T03:16:59.969Z,977.31
2023-11-04T03:18:00.581Z,977.29
2023-11-04T03:18:59.579Z,977.28
2023-11-04T03:20:01.445Z,977.29
2023-11-04T03:21:00.364Z,977.30
2023-11-04T03:22:02.966Z,977.27
2023-11-04T03:23:03.448Z,977.27
2023-11-04T03:24:02.932Z,977.26
2023-11-04T03:25:02.923Z,977.25
2023-11-04T03:26:03.855Z,977.26
2023-11-04T03:27:06.442Z,977.26
2023-11-04T03:28:06.599Z,977.24
2023-11-04T03:29:09.454Z,977.26
2023-11-04T03:30:08.479Z,977.24
2023-11-04T03:31:11.940Z,977.20
2023-11-04T03:32:08.337Z,977.21
2023-11-04T03:33:09.337Z,977.22
2023-11-04T03:34:10.337Z,977.18
2023-11-04T03:35:10.835Z,977.17
2023-11-04T03:36:11.263Z,977.15
2023-11-04T03:37:12.930Z,977.16
2023-11-04T03:38:12.850Z,977.13
2023-11-04T03:39:13.805Z,977.15
2023-11-04T03:40:14.754Z,977.11
2023-11-04T03:41:15.589Z,977.10
2023-11-04T03:42:21.467Z,977.09
2023-11-04T03:43:18.958Z,977.07
2023-11-04T03:44:24.439Z,977.07
2023-11-04T03:45:18.826Z,977.07
2023-11-04T03:46:21.463Z,977.05
2023-11-04T03:47:20.395Z,977.05
2023-11-04T03:48:24.085Z,977.05
2023-11-04T03:49:22.117Z,977.03
2023-11-04T03:50:22.585Z,977.03
2023-11-04T03:51:26.471Z,977.00
2023-11-04T03:52:26.953Z,976.99
2023-11-04T03:53:24.885Z,976.99
2023-11-04T03:54:26.486Z,977.00
2023-11-04T03:55:27.236Z,977.00
2023-11-04T03:56:27.186Z,977.03
2023-11-04T03:57:28.175Z,976.98
2023-11-04T03:58:33.443Z,976.99
2023-11-04T03:59:33.967Z,976.98
2023-11-04T04:00:29.867Z,976.96
2023-11-04T04:01:30.779Z,976.94
2023-11-04T04:02:32.468Z,976.94
2023-11-04T04:03:33.003Z,976.99
2023-11-04T04:04:35.527Z,976.94
2023-11-04T04:05:33.443Z,976.90
2023-11-04T04:06:35.996Z,976.92
2023-11-04T04:07:45.454Z,976.92
2023-11-04T04:08:36.473Z,976.90
2023-11-04T04:09:37.017Z,976.89
2023-11-04T04:10:52.541Z,976.88
2023-11-04T04:11:39.961Z,976.87
2023-11-04T04:14:52.098Z,976.84
2023-11-04T04:15:32.115Z,976.83
2023-11-04T04:16:31.558Z,976.84
2023-11-04T04:17:39.764Z,976.77
2023-11-04T04:18:30.587Z,976.83
2023-11-04T04:19:33.037Z,976.80
2023-11-04T04:20:31.012Z,976.80
2023-11-04T04:21:32.031Z,976.79
2023-11-04T04:22:32.436Z,976.83
2023-11-04T04:23:33.339Z,976.82
2023-11-04T04:24:35.100Z,976.83
2023-11-04T04:25:35.554Z,976.84
2023-11-04T04:26:35.981Z,976.82
2023-11-04T04:27:37.567Z,976.83
2023-11-04T04:28:37.494Z,976.82
2023-11-04T04:29:38.170Z,976.80
2023-11-04T04:30:41.100Z,976.80
2023-11-04T04:31:39.766Z,976.81
2023-11-04T04:32:40.835Z,976.84
2023-11-04T04:33:46.153Z,976.81
2023-11-04T04:34:42.120Z,976.84
2023-11-04T04:35:44.557Z,976.79
2023-11-04T04:36:43.592Z,976.76
2023-11-04T04:37:45.586Z,976.77
2023-11-04T04:38:47.539Z,976.77
2023-11-04T04:39:45.506Z,976.73
2023-11-04T04:40:46.550Z,976.74
2023-11-04T04:41:46.962Z,976.70
2023-11-04T04:42:50.580Z,976.70
2023-11-04T04:43:49.033Z,976.68
2023-11-04T04:44:49.526Z,976.66
2023-11-04T04:45:52.642Z,976.64
2023-11-04T04:46:50.564Z,976.65
2023-11-04T04:47:51.516Z,976.61
2023-11-04T04:48:52.528Z,976.59
2023-11-04T04:49:52.911Z,976.58
2023-11-04T04:50:54.531Z,976.57
2023-11-04T04:51:56.097Z,976.55
2023-11-04T04:52:59.560Z,976.58
2023-11-04T04:53:55.974Z,976.51
2023-11-04T04:54:57.569Z,976.53
2023-11-04T04:55:57.533Z,976.52
2023-11-04T04:57:00.094Z,976.50
2023-11-04T04:58:00.579Z,976.46
2023-11-04T04:59:03.043Z,976.49
2023-11-04T05:00:00.452Z,976.46
2023-11-04T05:01:01.425Z,976.46
2023-11-04T05:02:04.042Z,976.41
2023-11-04T05:03:03.070Z,976.43
2023-11-04T05:04:03.547Z,976.41
2023-11-04T05:05:05.157Z,976.38
2023-11-04T05:06:05.074Z,976.37
2023-11-04T05:07:06.550Z,976.38
2023-11-04T05:08:07.054Z,976.35
2023-11-04T05:09:07.974Z,976.34
2023-11-04T05:10:10.566Z,976.34
2023-11-04T05:11:09.494Z,976.31
2023-11-04T05:12:12.093Z,976.29
2023-11-04T05:13:15.556Z,976.28
2023-11-04T05:14:11.946Z,976.31
2023-11-04T05:15:12.865Z,976.26
2023-11-04T05:16:13.790Z,976.27
2023-11-04T05:17:15.552Z,976.27
2023-11-04T05:18:15.444Z,976.26
2023-11-04T05:19:16.010Z,976.23
2023-11-04T05:20:16.484Z,976.21
2023-11-04T05:21:18.062Z,976.21
2023-11-04T05:22:19.565Z,976.17
2023-11-04T05:23:18.463Z,976.17
2023-11-04T05:24:19.383Z,976.16
2023-11-04T05:25:21.064Z,976.16
2023-11-04T05:26:21.032Z,976.17
2023-11-04T05:27:23.625Z,976.17
2023-11-04T05:28:22.512Z,976.16
2023-11-04T05:29:23.429Z,976.16
2023-11-04T05:30:23.978Z,976.13
2023-11-04T05:31:25.606Z,976.14
2023-11-04T05:32:25.566Z,976.11
2023-11-04T05:33:27.253Z,976.11
2023-11-04T05:34:27.384Z,976.09
2023-11-04T05:35:33.562Z,976.09
2023-11-04T05:36:29.559Z,976.10
2023-11-04T05:37:30.041Z,976.05
2023-11-04T05:38:31.069Z,976.05
2023-11-04T05:39:31.616Z,976.04
2023-11-04T05:40:31.733Z,976.00
2023-11-04T05:41:32.182Z,976.00
2023-11-04T05:42:33.137Z,975.99
2023-11-04T05:43:34.033Z,975.99
2023-11-04T05:44:34.974Z,975.98
2023-11-04T05:45:35.989Z,975.99
2023-11-04T05:46:36.904Z,975.99
2023-11-04T05:47:37.846Z,975.98
2023-11-04T05:48:38.816Z,975.97
2023-11-04T05:49:39.362Z,975.96
2023-11-04T05:50:41.592Z,975.98
2023-11-04T05:51:41.075Z,975.99
2023-11-04T05:52:46.050Z,975.98
2023-11-04T05:53:42.459Z,975.99
2023-11-04T05:54:43.471Z,975.98
2023-11-04T05:55:45.593Z,975.97
2023-11-04T05:56:44.847Z,975.96
2023-11-04T05:57:45.884Z,975.99
2023-11-04T05:58:49.187Z,975.99
2023-11-04T05:59:50.040Z,975.99
2023-11-04T06:00:50.599Z,976.00
2023-11-04T06:01:48.521Z,976.00
2023-11-04T06:02:50.115Z,976.01
2023-11-04T06:03:51.671Z,976.02
2023-11-04T06:04:50.643Z,976.00
2023-11-04T06:05:51.603Z,975.97
2023-11-04T06:06:53.096Z,975.97
2023-11-04T06:07:55.056Z,975.92
2023-11-04T06:08:54.551Z,975.92
2023-11-04T06:09:54.990Z,975.90
2023-11-04T06:10:55.914Z,975.91
2023-11-04T06:11:58.572Z,975.87
2023-11-04T06:12:57.579Z,975.89
2023-11-04T06:14:00.073Z,975.86
2023-11-04T06:14:58.995Z,975.86
2023-11-04T06:15:59.968Z,975.86
2023-11-04T06:17:03.610Z,975.85
2023-11-04T06:18:02.092Z,975.85
2023-11-04T06:19:02.640Z,975.83
2023-11-04T06:20:03.119Z,975.81
2023-11-04T06:21:04.582Z,975.80
2023-11-04T06:22:05.080Z,975.78
2023-11-04T06:23:12.549Z,975.76
2023-11-04T06:24:07.567Z,975.75
2023-11-04T06:25:09.399Z,975.76
2023-11-04T06:26:08.198Z,975.77
2023-11-04T06:27:09.214Z,975.77
2023-11-04T06:28:11.570Z,975.79
2023-11-04T06:29:10.525Z,975.77
2023-11-04T06:30:14.125Z,975.78
2023-11-04T06:31:15.044Z,975.79
2023-11-04T06:32:12.995Z,975.75
2023-11-04T06:33:14.087Z,975.76
2023-11-04T06:34:14.072Z,975.81
2023-11-04T06:35:16.113Z,975.81
2023-11-04T06:36:18.071Z,975.81
2023-11-04T06:37:17.574Z,975.75
2023-11-04T06:38:16.992Z,975.77
2023-11-04T06:39:20.068Z,975.71
2023-11-04T06:40:20.559Z,975.71
2023-11-04T06:41:18.515Z,975.67
2023-11-04T06:42:19.428Z,975.64
2023-11-04T06:43:20.356Z,975.64
2023-11-04T06:44:21.312Z,975.63
2023-11-04T06:45:22.565Z,975.61
2023-11-04T06:46:22.506Z,975.61
2023-11-04T06:47:23.617Z,975.61
2023-11-04T06:48:24.098Z,975.57
2023-11-04T06:49:27.611Z,975.58
2023-11-04T06:50:26.575Z,975.55
2023-11-04T06:51:26.578Z,975.57
2023-11-04T06:52:27.503Z,975.56
2023-11-04T06:53:30.085Z,975.54
2023-11-04T06:54:29.105Z,975.54
2023-11-04T06:55:31.576Z,975.58
2023-11-04T06:56:30.513Z,975.58
2023-11-04T06:57:32.071Z,975.58
2023-11-04T06:58:34.691Z,975.55
2023-11-04T06:59:32.630Z,975.51
2023-11-04T07:00:33.564Z,975.53
2023-11-04T07:01:34.445Z,975.51
2023-11-04T07:02:35.459Z,975.51
2023-11-04T07:03:36.638Z,975.49
2023-11-04T07:04:39.585Z,975.48
2023-11-04T07:05:38.395Z,975.50
2023-11-04T07:06:39.094Z,975.47
2023-11-04T07:07:40.576Z,975.46
2023-11-04T07:08:42.064Z,975.47
2023-11-04T07:09:45.593Z,975.45
2023-11-04T07:10:43.084Z,975.46
2023-11-04T07:11:44.619Z,975.45
2023-11-04T07:12:53.232Z,975.46
2023-11-04T07:13:46.154Z,975.44
2023-11-04T07:14:44.850Z,975.46
2023-11-04T07:15:45.207Z,975.45
2023-11-04T07:16:47.086Z,975.43
2023-11-04T07:17:46.217Z,975.41
2023-11-04T07:18:47.441Z,975.41
2023-11-04T07:19:48.035Z,975.41
2023-11-04T07:20:50.095Z,975.40
2023-11-04T07:21:48.369Z,975.42
2023-11-04T07:22:50.084Z,975.40
2023-11-04T07:23:50.562Z,975.42
2023-11-04T07:24:55.692Z,975.39
2023-11-04T07:25:56.657Z,975.39
2023-11-04T07:26:53.602Z,975.39
2023-11-04T07:27:55.626Z,975.39
2023-11-04T07:28:53.614Z,975.38
2023-11-04T07:30:01.065Z,975.36
2023-11-04T07:31:05.782Z,975.36
2023-11-04T07:32:00.066Z,975.33
2023-11-04T07:32:57.119Z,975.33
2023-11-04T07:33:59.615Z,975.32
2023-11-04T07:34:57.515Z,975.30
2023-11-04T07:36:02.092Z,975.32
2023-11-04T07:36:59.084Z,975.30
2023-11-04T07:37:59.498Z,975.33
2023-11-04T07:39:00.477Z,975.29
2023-11-04T07:40:01.453Z,975.33
2023-11-04T07:41:02.394Z,975.30
2023-11-04T07:42:03.367Z,975.30
2023-11-04T07:43:04.383Z,975.28
2023-11-04T07:44:05.394Z,975.26
2023-11-04T07:45:07.598Z,975.25
2023-11-04T07:46:07.129Z,975.29
2023-11-04T07:47:07.110Z,975.26
2023-11-04T07:48:08.674Z,975.23
2023-11-04T07:49:08.724Z,975.25
2023-11-04T07:50:14.134Z,975.23
2023-11-04T07:51:10.006Z,975.22
2023-11-04T07:52:10.522Z,975.19
2023-11-04T07:53:15.613Z,975.17
2023-11-04T07:54:14.757Z,975.19
2023-11-04T07:55:13.102Z,975.18
2023-11-04T07:56:13.630Z,975.17
2023-11-04T07:57:13.547Z,975.14
2023-11-04T07:58:14.471Z,975.17
2023-11-04T07:59:16.401Z,975.15
2023-11-04T08:00:16.417Z,975.10
2023-11-04T08:01:20.067Z,975.13
2023-11-04T08:02:17.998Z,975.10
2023-11-04T08:03:19.066Z,975.10
2023-11-04T08:04:19.766Z,975.13
2023-11-04T08:05:20.396Z,975.10
2023-11-04T08:06:22.591Z,975.11
2023-11-04T08:07:21.523Z,975.17
2023-11-04T08:08:22.762Z,975.16
2023-11-04T08:09:24.113Z,975.19
2023-11-04T08:10:24.600Z,975.14
2023-11-04T08:11:25.003Z,975.14
2023-11-04T08:12:26.616Z,975.14
2023-11-04T08:13:26.583Z,975.10
2023-11-04T08:14:28.836Z,975.09
2023-11-04T08:15:28.312Z,975.05
2023-11-04T08:16:29.219Z,975.04
2023-11-04T08:17:30.527Z,975.06
2023-11-04T08:18:31.071Z,975.06
2023-11-04T08:19:34.133Z,975.02
2023-11-04T08:20:35.227Z,974.99
2023-11-04T08:21:36.210Z,974.99
2023-11-04T08:22:37.131Z,975.01
2023-11-04T08:23:35.620Z,975.01
2023-11-04T08:24:35.794Z,974.97
2023-11-04T08:25:36.192Z,974.99
2023-11-04T08:26:37.131Z,974.96
2023-11-04T08:27:39.726Z,974.99
2023-11-04T08:28:40.801Z,974.97
2023-11-04T08:29:40.139Z,974.96
2023-11-04T08:30:41.661Z,974.94
2023-11-04T08:31:42.095Z,974.93
2023-11-04T08:32:41.862Z,974.90
2023-11-04T08:33:42.390Z,974.91
2023-11-04T08:34:42.928Z,974.85
2023-11-04T08:35:45.116Z,974.83
2023-11-04T08:37:08.611Z,974.84
2023-11-04T08:37:45.589Z,974.81
2023-11-04T08:38:46.088Z,974.78
2023-11-04T08:39:57.337Z,974.78
2023-11-04T08:41:02.822Z,974.77
2023-11-04T08:41:50.578Z,974.77
2023-11-04T08:42:48.518Z,974.73
2023-11-04T08:43:52.432Z,974.69
2023-11-04T08:44:52.198Z,974.69
2023-11-04T08:45:53.183Z,974.66
2023-11-04T08:46:52.376Z,974.70
2023-11-04T08:47:52.400Z,974.67
2023-11-04T08:48:53.383Z,974.66
2023-11-04T08:49:53.988Z,974.67
2023-11-04T08:50:54.780Z,974.68
2023-11-04T08:51:55.631Z,974.68
2023-11-04T08:52:56.507Z,974.66
2023-11-04T08:53:57.451Z,974.65
2023-11-04T08:54:59.191Z,974.62
2023-11-04T08:55:59.591Z,974.64
2023-11-04T08:57:00.624Z,974.64
2023-11-04T08:58:01.171Z,974.63
2023-11-04T08:59:01.165Z,974.61
2023-11-04T09:00:03.649Z,974.61
2023-11-04T09:01:03.647Z,974.57
2023-11-04T09:02:04.667Z,974.56
2023-11-04T09:03:04.635Z,974.52
2023-11-04T09:04:14.096Z,974.48
2023-11-04T09:05:10.138Z,974.49
2023-11-04T09:06:07.499Z,974.45
2023-11-04T09:07:08.241Z,974.39
2023-11-04T09:08:09.117Z,974.37
2023-11-04T09:09:12.610Z,974.34
2023-11-04T09:10:10.109Z,974.33
2023-11-04T09:11:13.089Z,974.33
2023-11-04T09:12:12.090Z,974.34
2023-11-04T09:13:12.037Z,974.36
2023-11-04T09:14:12.989Z,974.29
2023-11-04T09:15:13.822Z,974.24
2023-11-04T09:16:16.610Z,974.26
2023-11-04T09:17:16.585Z,974.22
2023-11-04T09:18:19.932Z,974.21
2023-11-04T09:19:18.168Z,974.18
2023-11-04T09:20:17.664Z,974.16
2023-11-04T09:21:18.578Z,974.17
2023-11-04T09:22:19.489Z,974.15
2023-11-04T09:23:23.137Z,974.17
2023-11-04T09:24:22.099Z,974.16
2023-11-04T09:25:20.996Z,974.21
2023-11-04T09:26:21.883Z,974.23
2023-11-04T09:27:24.584Z,974.24
2023-11-04T09:28:26.129Z,974.25
2023-11-04T09:29:26.904Z,974.26
2023-11-04T09:30:24.949Z,974.24
2023-11-04T09:31:27.152Z,974.23
2023-11-04T09:32:31.165Z,974.23
2023-11-04T09:33:27.193Z,974.23
2023-11-04T09:34:28.676Z,974.16
2023-11-04T09:35:31.091Z,974.12
2023-11-04T09:36:30.626Z,974.10
2023-11-04T09:37:29.980Z,974.04
2023-11-04T09:38:31.618Z,974.10
2023-11-04T09:39:31.579Z,974.00
2023-11-04T09:40:33.167Z,974.01
2023-11-04T09:41:37.243Z,974.00
2023-11-04T09:42:34.021Z,974.00
2023-11-04T09:43:35.097Z,974.00
2023-11-04T09:44:35.428Z,974.02
2023-11-04T09:45:39.112Z,974.00
2023-11-04T09:46:38.605Z,974.01
2023-11-04T09:47:42.591Z,973.99
2023-11-04T09:48:40.499Z,973.94
2023-11-04T09:49:41.108Z,973.98
2023-11-04T09:50:40.209Z,973.95
2023-11-04T09:51:42.142Z,973.95
2023-11-04T09:52:42.602Z,973.92
2023-11-04T09:53:43.023Z,973.90
2023-11-04T09:54:43.968Z,973.92
2023-11-04T09:55:45.659Z,973.91
2023-11-04T09:56:46.609Z,973.92
2023-11-04T09:57:51.138Z,973.97
2023-11-04T09:58:47.515Z,973.92
2023-11-04T09:59:49.095Z,973.91
2023-11-04T10:00:49.089Z,973.94
2023-11-04T10:01:50.052Z,973.87
2023-11-04T10:02:51.296Z,973.90
2023-11-04T10:03:51.259Z,973.85
2023-11-04T10:04:51.770Z,973.86
2023-11-04T10:05:53.153Z,973.82
2023-11-04T10:06:53.609Z,973.86
2023-11-04T10:07:56.594Z,973.84
2023-11-04T10:08:55.017Z,973.79
2023-11-04T10:09:56.645Z,973.79
2023-11-04T10:10:56.731Z,973.76
2023-11-04T10:11:59.149Z,973.70
2023-11-04T10:12:58.743Z,973.70
2023-11-04T10:13:58.665Z,973.67
2023-11-04T10:14:59.756Z,973.64
2023-11-04T10:16:01.235Z,973.65
2023-11-04T10:17:01.189Z,973.61
2023-11-04T10:18:02.194Z,973.62
2023-11-04T10:19:02.225Z,973.57
2023-11-04T10:20:04.751Z,973.57
2023-11-04T10:21:04.611Z,973.58
2023-11-04T10:22:04.680Z,973.55
2023-11-04T10:23:06.202Z,973.57
2023-11-04T10:24:05.710Z,973.49
2023-11-04T10:25:06.278Z,973.43
2023-11-04T10:26:07.627Z,973.42
2023-11-04T10:27:07.644Z,973.39
2023-11-04T10:28:11.209Z,973.35
2023-11-04T10:29:12.160Z,973.29
2023-11-04T10:30:10.459Z,973.25
2023-11-04T10:31:12.218Z,973.22
2023-11-04T10:32:11.796Z,973.19
2023-11-04T10:33:12.309Z,973.17
2023-11-04T10:34:13.491Z,973.14
2023-11-04T10:35:13.958Z,973.10
2023-11-04T10:36:14.930Z,973.06
2023-11-04T10:37:16.663Z,973.04
2023-11-04T10:38:16.671Z,973.03
2023-11-04T10:39:17.596Z,973.01
2023-11-04T10:40:17.844Z,972.98
2023-11-04T10:41:19.709Z,972.95
2023-11-04T10:42:20.638Z,972.93
2023-11-04T10:43:21.109Z,972.89
2023-11-04T10:44:21.670Z,972.87
2023-11-04T10:45:21.649Z,972.79
2023-11-04T10:46:22.598Z,972.75
2023-11-04T10:47:24.669Z,972.74
2023-11-04T10:48:24.066Z,972.71
2023-11-04T10:49:25.810Z,972.67
2023-11-04T10:50:25.831Z,972.64
2023-11-04T10:51:26.846Z,972.66
2023-11-04T10:52:27.783Z,972.62
2023-11-04T10:53:28.711Z,972.59
2023-11-04T10:54:29.689Z,972.53
2023-11-04T10:55:31.162Z,972.51
2023-11-04T10:56:31.146Z,972.48
2023-11-04T10:57:32.248Z,972.47
2023-11-04T10:58:32.211Z,972.43
2023-11-04T10:59:33.142Z,972.41
2023-11-04T11:00:34.131Z,972.39
2023-11-04T11:01:35.182Z,972.36
2023-11-04T11:02:35.646Z,972.34
2023-11-04T11:03:37.158Z,972.33
2023-11-04T11:04:37.120Z,972.31
2023-11-04T11:05:38.096Z,972.31
2023-11-04T11:06:39.071Z,972.27
2023-11-04T11:07:39.943Z,972.23
2023-11-04T11:08:41.637Z,972.26
2023-11-04T11:09:41.644Z,972.21
2023-11-04T11:10:42.624Z,972.19
2023-11-04T11:11:43.116Z,972.15
2023-11-04T11:12:43.609Z,972.14
2023-11-04T11:13:44.526Z,972.14
2023-11-04T11:14:46.118Z,972.13
2023-11-04T11:15:47.494Z,972.10
2023-11-04T11:16:47.410Z,972.08
2023-11-04T11:17:48.411Z,972.09
2023-11-04T11:18:49.767Z,972.10
2023-11-04T11:19:49.754Z,972.03
2023-11-04T11:20:52.245Z,972.03
2023-11-04T11:21:51.680Z,972.02
2023-11-04T11:22:52.694Z,971.97
2023-11-04T11:23:54.638Z,971.98
2023-11-04T11:24:53.789Z,971.97
2023-11-04T11:25:54.274Z,971.97
2023-11-04T11:26:54.733Z,971.92
2023-11-04T11:27:56.681Z,971.87
2023-11-04T11:28:57.133Z,971.89
2023-11-04T11:29:57.112Z,971.86
2023-11-04T11:30:58.186Z,971.88
2023-11-04T11:31:58.636Z,971.85
2023-11-04T11:32:59.645Z,971.86
2023-11-04T11:34:00.243Z,971.86
2023-11-04T11:35:00.753Z,971.86
2023-11-04T11:36:01.215Z,971.84
2023-11-04T11:37:02.203Z,971.73
2023-11-04T11:38:03.132Z,971.72
2023-11-04T11:39:05.284Z,971.72
2023-11-04T11:40:16.025Z,971.74
2023-11-04T11:41:05.448Z,971.76
2023-11-04T11:42:06.372Z,971.69
2023-11-04T11:43:08.238Z,971.67
2023-11-04T11:44:08.309Z,971.70
2023-11-04T11:45:09.001Z,971.70
2023-11-04T11:46:10.072Z,971.62
2023-11-04T11:47:11.250Z,971.61
2023-11-04T11:48:11.496Z,971.64
2023-11-04T11:49:12.428Z,971.58
2023-11-04T11:50:13.445Z,971.60
2023-11-04T11:51:14.149Z,971.57
2023-11-04T11:52:15.688Z,971.57
2023-11-04T11:53:15.611Z,971.57
2023-11-04T11:54:17.124Z,971.46
2023-11-04T11:55:17.651Z,971.49
2023-11-04T11:56:18.074Z,971.49
2023-11-04T11:57:19.064Z,971.45
2023-11-04T11:58:20.002Z,971.44
2023-11-04T11:59:20.942Z,971.42
2023-11-04T12:00:21.912Z,971.41
2023-11-04T12:01:22.899Z,971.36
2023-11-04T12:02:24.661Z,971.33
2023-11-04T12:03:25.236Z,971.35
2023-11-04T12:04:25.294Z,971.38
2023-11-04T12:05:25.721Z,971.34
2023-11-04T12:06:26.679Z,971.33
2023-11-04T12:07:27.666Z,971.29
2023-11-04T12:08:28.604Z,971.24
2023-11-04T12:09:29.537Z,971.25
2023-11-04T12:10:30.470Z,971.30
2023-11-04T12:11:31.526Z,971.18
2023-11-04T12:12:31.977Z,971.21
2023-11-04T12:13:32.908Z,971.21
2023-11-04T12:14:33.832Z,971.15
2023-11-04T12:15:34.828Z,971.11
2023-11-04T12:16:35.325Z,971.09
2023-11-04T12:17:36.301Z,971.13
2023-11-04T12:18:37.269Z,971.09
2023-11-04T12:19:40.183Z,971.03
2023-11-04T12:20:39.007Z,971.06
2023-11-04T12:21:39.475Z,971.00
2023-11-04T12:22:41.159Z,970.94
2023-11-04T12:23:41.108Z,970.91
2023-11-04T12:24:43.724Z,970.87
2023-11-04T12:25:42.678Z,970.89
2023-11-04T12:26:44.665Z,970.88
2023-11-04T12:27:44.181Z,970.86
2023-11-04T12:28:44.122Z,970.84
2023-11-04T12:29:45.427Z,970.81
2023-11-04T12:30:45.952Z,970.78
2023-11-04T12:31:46.944Z,970.74
2023-11-04T12:32:48.236Z,970.71
2023-11-04T12:33:48.338Z,970.64
2023-11-04T12:34:48.947Z,970.62
2023-11-04T12:35:55.174Z,970.62
2023-11-04T12:36:51.272Z,970.57
2023-11-04T12:37:50.697Z,970.52
2023-11-04T12:38:51.693Z,970.53
2023-11-04T12:39:52.576Z,970.51